createdAt,value
2022-09-09T00:02:40.620Z,4.30
2022-09-09T00:05:17.695Z,3.00
2022-09-09T00:07:53.360Z,3.40
2022-09-09T00:10:40.617Z,3.23
2022-09-09T00:13:39.193Z,2.43
2022-09-09T00:16:40.168Z,3.27
2022-09-09T00:19:27.023Z,3.50
2022-09-09T00:22:48.683Z,2.53
2022-09-09T00:25:52.695Z,0.90
2022-09-09T00:28:46.744Z,0.80
2022-09-09T00:31:39.592Z,0.90
2022-09-09T00:34:39.057Z,0.87
2022-09-09T00:37:29.344Z,0.80
2022-09-09T00:40:21.992Z,0.70
2022-09-09T00:43:31.602Z,0.90
2022-09-09T00:47:00.280Z,0.80
2022-09-09T00:50:24.672Z,0.93
2022-09-09T00:53:23.510Z,0.90
2022-09-09T00:56:33.060Z,0.83
2022-09-09T00:59:46.028Z,0.67
2022-09-09T01:02:55.575Z,0.50
2022-09-09T01:05:51.036Z,0.90
2022-09-09T01:09:02.797Z,0.80
2022-09-09T01:11:55.001Z,0.90
2022-09-09T01:14:55.075Z,0.80
2022-09-09T01:17:47.744Z,1.00
2022-09-09T01:20:36.327Z,0.77
2022-09-09T01:23:23.416Z,0.90
2022-09-09T01:26:41.387Z,0.97
2022-09-09T01:29:37.336Z,0.80
2022-09-09T01:33:01.467Z,0.70
2022-09-09T01:35:52.780Z,0.70
2022-09-09T01:38:42.572Z,1.00
2022-09-09T01:41:29.578Z,0.97
2022-09-09T01:44:26.958Z,0.70
2022-09-09T01:47:14.229Z,0.90
2022-09-09T01:50:15.822Z,0.90
2022-09-09T01:53:04.963Z,0.80
2022-09-09T01:56:02.835Z,0.93
2022-09-09T01:59:21.029Z,0.80
2022-09-09T02:02:36.119Z,1.00
2022-09-09T02:05:49.184Z,0.97
2022-09-09T02:08:49.846Z,0.93
2022-09-09T02:11:40.205Z,0.97
2022-09-09T02:14:42.417Z,1.10
2022-09-09T02:17:33.377Z,0.80
2022-09-09T02:20:35.164Z,1.00
2022-09-09T02:23:23.123Z,0.80
2022-09-09T02:26:14.961Z,1.00
2022-09-09T02:29:02.864Z,1.00
2022-09-09T02:31:49.804Z,0.90
2022-09-09T02:34:44.665Z,1.00
2022-09-09T02:37:34.292Z,1.00
2022-09-09T02:40:21.432Z,1.20
2022-09-09T02:43:16.049Z,1.10
2022-09-09T02:46:14.135Z,0.93
2022-09-09T02:49:13.475Z,1.00
2022-09-09T02:52:26.163Z,1.00
2022-09-09T02:55:20.872Z,1.00
2022-09-09T02:58:09.140Z,1.00
2022-09-09T03:01:00.188Z,1.33
2022-09-09T03:03:47.514Z,0.90
2022-09-09T03:06:36.848Z,1.23
2022-09-09T03:09:35.233Z,0.87
2022-09-09T03:12:22.444Z,1.50
2022-09-09T03:15:09.367Z,1.10
2022-09-09T03:17:57.498Z,1.10
2022-09-09T03:20:45.932Z,1.20
2022-09-09T03:23:32.976Z,1.00
2022-09-09T03:26:23.175Z,1.10
2022-09-09T03:29:10.260Z,1.17
2022-09-09T03:31:57.828Z,1.40
2022-09-09T07:38:28.862Z,1.27
2022-09-09T07:41:07.997Z,0.90
2022-09-09T07:43:35.136Z,1.13
2022-09-09T07:46:03.568Z,0.77
2022-09-09T07:48:31.212Z,1.00
2022-09-09T07:51:14.749Z,1.00
2022-09-09T07:53:41.874Z,0.90
2022-09-09T07:56:11.932Z,0.77
2022-09-09T07:58:40.563Z,0.70
2022-09-09T08:01:32.434Z,0.40
2022-09-09T08:04:22.544Z,0.60
2022-09-09T08:07:16.392Z,1.47
2022-09-09T08:10:09.587Z,0.47
2022-09-09T08:13:16.835Z,0.50
2022-09-09T08:16:05.194Z,0.70
2022-09-09T08:18:52.595Z,1.00
2022-09-09T08:21:42.556Z,0.60
2022-09-09T08:24:31.764Z,0.70
2022-09-09T08:27:18.928Z,0.60
2022-09-09T08:30:05.789Z,0.60
2022-09-09T08:32:53.941Z,0.70
2022-09-09T08:35:42.449Z,0.50
2022-09-09T08:38:29.609Z,0.60
2022-09-09T08:41:07.428Z,0.67
2022-09-09T08:43:55.228Z,0.60
2022-09-09T08:46:53.241Z,0.80
2022-09-09T08:49:59.667Z,0.80
2022-09-09T08:52:57.233Z,0.53
2022-09-09T08:55:56.320Z,0.80
2022-09-09T08:58:54.421Z,0.60
2022-09-09T09:02:13.475Z,0.60
2022-09-09T09:05:07.036Z,0.40
2022-09-09T09:08:27.303Z,0.60
2022-09-09T09:11:17.393Z,0.53
2022-09-09T09:14:15.930Z,0.50
2022-09-09T09:17:11.340Z,0.50
2022-09-09T09:20:01.660Z,0.50
2022-09-09T09:23:06.357Z,0.40
2022-09-09T09:25:59.413Z,0.67
2022-09-09T09:28:51.073Z,0.40
2022-09-09T09:31:41.015Z,0.33
2022-09-09T09:34:29.619Z,0.23
2022-09-09T09:37:19.002Z,0.40
2022-09-09T09:40:06.353Z,0.40
2022-09-09T09:42:53.400Z,0.40
2022-09-09T09:46:19.093Z,0.30
2022-09-09T09:49:17.803Z,0.50
2022-09-09T09:52:05.657Z,0.30
2022-09-09T09:54:38.266Z,0.30
2022-09-09T09:57:17.805Z,0.40
2022-09-09T09:59:47.083Z,0.50
2022-09-09T10:02:27.840Z,0.40
2022-09-09T10:05:14.560Z,0.33
2022-09-09T10:07:49.100Z,0.47
2022-09-09T10:10:29.789Z,0.37
2022-09-09T10:13:22.443Z,0.40
2022-09-09T10:16:05.480Z,0.40
2022-09-09T10:18:53.640Z,0.37
2022-09-09T10:21:43.960Z,0.30
2022-09-09T10:24:19.620Z,0.30
2022-09-09T10:27:05.374Z,0.40
2022-09-09T10:30:11.488Z,0.40
2022-09-09T10:32:41.128Z,0.40
2022-09-09T10:35:37.990Z,0.40
2022-09-09T10:38:20.168Z,0.50
2022-09-09T10:40:58.920Z,0.33
2022-09-09T10:44:00.478Z,0.50
2022-09-09T10:46:53.208Z,0.90
2022-09-09T10:49:39.059Z,0.57
2022-09-09T10:52:43.208Z,0.47
2022-09-09T10:55:19.370Z,0.50
2022-09-09T10:57:51.132Z,0.30
2022-09-09T11:00:28.397Z,0.50
2022-09-09T11:03:03.283Z,0.30
2022-09-09T11:06:07.762Z,0.60
2022-09-09T11:08:38.703Z,0.37
2022-09-09T11:11:05.798Z,0.40
2022-09-09T11:13:44.332Z,0.50
2022-09-09T11:16:28.925Z,0.40
2022-09-09T11:19:29.613Z,0.60
2022-09-09T11:21:59.645Z,0.50
2022-09-09T11:24:56.230Z,0.40
2022-09-09T11:28:18.173Z,0.43
2022-09-09T11:31:14.014Z,0.50
2022-09-09T11:34:12.817Z,0.40
2022-09-09T11:37:19.989Z,0.40
2022-09-09T11:40:45.701Z,0.30
2022-09-09T11:43:57.988Z,0.53
2022-09-09T11:46:56.136Z,0.30
2022-09-09T11:50:00.667Z,0.20
2022-09-09T11:52:58.813Z,0.40
2022-09-09T11:55:47.404Z,0.40
2022-09-09T11:58:34.199Z,0.40
2022-09-09T12:01:21.237Z,0.40
2022-09-09T12:04:12.839Z,0.37
2022-09-09T12:07:01.496Z,0.40
2022-09-09T12:10:06.199Z,0.50
2022-09-09T12:12:57.787Z,0.43
2022-09-09T12:15:50.582Z,0.43
2022-09-09T12:18:45.777Z,0.50
2022-09-09T12:21:48.225Z,0.50
2022-09-09T12:24:26.471Z,0.40
2022-09-09T12:27:15.312Z,0.60
2022-09-09T12:30:10.752Z,0.40
2022-09-09T12:32:39.071Z,0.43
2022-09-09T12:35:17.119Z,0.40
2022-09-09T12:38:05.409Z,0.47
2022-09-09T12:40:36.525Z,0.40
2022-09-09T12:43:18.779Z,0.50
2022-09-09T12:45:46.461Z,0.43
2022-09-09T12:48:16.706Z,0.90
2022-09-09T12:50:52.926Z,0.53
2022-09-09T12:53:30.815Z,0.40
2022-09-09T12:56:01.837Z,0.50
2022-09-09T12:58:33.846Z,0.40
2022-09-09T13:01:02.766Z,0.50
2022-09-09T13:03:29.800Z,0.60
2022-09-09T13:06:10.962Z,0.30
2022-09-09T13:08:38.100Z,0.30
2022-09-09T13:11:13.312Z,0.33
2022-09-09T13:13:44.342Z,0.40
2022-09-09T13:16:51.867Z,0.40
2022-09-09T13:19:38.922Z,0.37
2022-09-09T13:22:47.924Z,0.33
2022-09-09T13:25:40.702Z,0.30
2022-09-09T13:28:42.960Z,0.50
2022-09-09T13:31:54.987Z,0.47
2022-09-09T13:34:54.084Z,0.30
2022-09-09T13:37:52.685Z,0.30
2022-09-09T13:40:45.180Z,0.40
2022-09-09T13:43:41.196Z,0.30
2022-09-09T13:46:31.247Z,0.33
2022-09-09T13:49:21.780Z,0.40
2022-09-09T13:51:54.440Z,0.43
2022-09-09T13:54:42.907Z,0.40
2022-09-09T13:57:40.780Z,0.27
2022-09-09T14:00:32.513Z,0.30
2022-09-09T14:03:20.052Z,0.50
2022-09-09T14:06:07.556Z,0.23
2022-09-09T14:08:54.461Z,0.30
2022-09-09T14:11:41.599Z,0.30
2022-09-09T14:14:28.907Z,0.57
2022-09-09T14:17:15.940Z,0.40
2022-09-09T14:20:02.885Z,0.40
2022-09-09T14:22:49.708Z,0.40
2022-09-09T14:25:36.816Z,0.33
2022-09-09T14:28:45.130Z,0.40
2022-09-09T14:31:30.777Z,0.40
2022-09-09T14:34:17.651Z,0.30
2022-09-09T14:37:04.672Z,0.43
2022-09-09T14:39:51.685Z,0.30
2022-09-09T14:42:39.100Z,0.20
2022-09-09T14:45:26.615Z,0.40
2022-09-09T14:48:13.855Z,0.47
2022-09-09T14:51:00.747Z,0.57
2022-09-09T14:53:47.765Z,0.40
2022-09-09T14:56:40.812Z,0.43
2022-09-09T14:59:07.745Z,0.20
2022-09-09T15:01:35.296Z,0.40
2022-09-09T15:04:05.107Z,0.40
2022-09-09T15:06:34.582Z,0.40
2022-09-09T15:09:01.949Z,0.60
2022-09-09T15:11:31.842Z,0.40
2022-09-09T15:13:59.616Z,0.30
2022-09-09T15:16:29.114Z,0.43
2022-09-09T15:18:58.480Z,0.30
2022-09-09T15:21:27.862Z,0.40
2022-09-09T15:23:56.423Z,0.40
2022-09-09T15:26:23.764Z,0.50
2022-09-09T15:28:52.102Z,0.47
2022-09-09T15:31:20.180Z,0.60
2022-09-09T15:33:50.801Z,1.63
2022-09-09T15:36:20.553Z,0.50
2022-09-09T15:38:48.583Z,0.53
2022-09-09T15:41:16.607Z,0.40
2022-09-09T15:43:49.786Z,0.40
2022-09-09T15:46:26.404Z,0.50
2022-09-09T15:48:54.695Z,0.40
2022-09-09T15:51:41.017Z,0.37
2022-09-09T15:54:09.196Z,0.40
2022-09-09T15:56:36.278Z,0.50
2022-09-09T15:59:06.363Z,0.50
2022-09-09T16:01:53.751Z,0.60
2022-09-09T16:04:41.359Z,0.50
2022-09-09T16:07:28.312Z,0.50
2022-09-09T16:10:15.156Z,0.30
2022-09-09T16:13:02.336Z,0.33
2022-09-09T16:15:49.251Z,0.40
2022-09-09T16:18:36.355Z,0.40
2022-09-09T16:21:24.077Z,0.60
2022-09-09T16:24:12.496Z,0.60
2022-09-09T16:27:03.724Z,0.70
2022-09-09T16:29:50.968Z,0.60
2022-09-09T16:32:37.940Z,0.60
2022-09-09T16:35:25.393Z,0.53
2022-09-09T16:38:12.241Z,0.60
2022-09-09T16:40:59.560Z,0.70
2022-09-09T16:43:46.383Z,0.50
2022-09-09T16:46:39.058Z,0.50
2022-09-09T16:49:28.516Z,0.40
2022-09-09T16:52:20.698Z,0.60
2022-09-09T16:55:07.953Z,0.93
2022-09-09T16:57:55.024Z,0.60
2022-09-09T17:00:41.829Z,0.70
2022-09-09T17:03:34.012Z,0.47
2022-09-09T17:06:23.652Z,0.50
2022-09-09T17:09:21.505Z,0.53
2022-09-09T17:12:08.908Z,0.57
2022-09-09T17:14:56.053Z,0.50
2022-09-09T17:17:42.866Z,0.60
2022-09-09T17:20:45.083Z,0.90
2022-09-09T17:23:33.240Z,0.60
2022-09-09T17:26:21.319Z,0.60
2022-09-09T17:29:08.328Z,0.70
2022-09-09T17:31:55.455Z,0.60
2022-09-09T17:34:42.260Z,0.70
2022-09-09T17:37:29.133Z,0.70
2022-09-09T17:40:16.134Z,0.77
2022-09-09T17:43:03.314Z,0.70
2022-09-09T17:45:50.181Z,0.67
2022-09-09T17:48:37.435Z,0.87
2022-09-09T17:51:28.892Z,0.80
2022-09-09T17:54:17.755Z,0.70
2022-09-09T17:57:06.419Z,0.77
2022-09-09T17:59:53.475Z,0.80
2022-09-09T18:02:40.313Z,0.90
2022-09-09T18:05:27.746Z,0.70
2022-09-09T18:08:14.598Z,0.77
2022-09-09T18:11:01.616Z,0.63
2022-09-09T18:13:48.751Z,0.80
2022-09-09T18:16:36.137Z,0.70
2022-09-09T18:19:29.263Z,0.80
2022-09-09T18:22:16.593Z,0.90
2022-09-09T18:25:03.530Z,0.50
2022-09-09T18:27:50.417Z,0.77
2022-09-09T18:30:37.377Z,0.80
2022-09-09T18:33:24.462Z,0.70
2022-09-09T18:36:11.339Z,0.70
2022-09-09T18:38:58.588Z,0.70
2022-09-09T18:41:54.263Z,1.13
2022-09-09T18:44:44.623Z,1.10
2022-09-09T18:47:31.511Z,1.30
2022-09-09T18:50:18.562Z,1.20
2022-09-09T18:53:05.538Z,1.30
2022-09-09T18:55:52.462Z,1.17
2022-09-09T18:58:39.312Z,1.03
2022-09-09T19:01:33.599Z,1.20
2022-09-09T19:04:20.518Z,1.20
2022-09-09T19:07:08.659Z,1.27
2022-09-09T19:09:55.687Z,1.30
2022-09-09T19:12:42.829Z,1.40
2022-09-09T19:15:30.093Z,1.50
2022-09-09T19:18:17.032Z,1.50
2022-09-09T19:21:03.859Z,1.47
2022-09-09T19:23:50.887Z,1.53
2022-09-09T19:26:37.724Z,1.30
2022-09-09T19:29:24.824Z,1.33
2022-09-09T19:35:22.320Z,1.30
2022-09-09T19:38:09.240Z,1.30
2022-09-09T19:40:56.335Z,1.40
2022-09-09T19:43:44.728Z,1.40
2022-09-09T19:46:33.172Z,1.20
2022-09-09T19:49:20.830Z,1.70
2022-09-09T19:52:07.896Z,1.20
2022-09-09T19:54:54.824Z,1.37
2022-09-09T19:57:41.940Z,1.47
2022-09-09T20:00:29.619Z,1.40
2022-09-09T20:03:19.567Z,1.50
2022-09-09T20:06:07.035Z,1.50
2022-09-09T20:08:56.308Z,1.30
2022-09-09T20:11:44.003Z,1.40
2022-09-09T20:14:34.045Z,1.30
2022-09-09T20:17:24.143Z,1.40
2022-09-09T20:20:11.112Z,1.47
2022-09-09T20:22:57.970Z,1.43
2022-09-09T20:25:44.992Z,1.50
2022-09-09T20:28:31.840Z,1.23
2022-09-09T20:31:28.580Z,1.30
2022-09-09T20:34:17.308Z,1.17
2022-09-09T20:37:04.708Z,1.50
2022-09-09T20:39:51.627Z,1.40
2022-09-09T20:42:38.760Z,1.33
2022-09-09T20:45:26.052Z,1.23
2022-09-09T20:48:13.043Z,1.73
2022-09-09T20:50:59.884Z,1.20
2022-09-09T20:53:46.979Z,1.23
2022-09-09T20:56:34.255Z,1.20
2022-09-09T20:59:21.374Z,1.17
2022-09-09T21:02:08.751Z,1.10
2022-09-09T21:04:55.771Z,1.50
2022-09-09T21:07:42.615Z,1.10
2022-09-09T21:10:29.700Z,1.20
2022-09-09T21:13:16.596Z,1.23
2022-09-09T21:16:07.583Z,1.13
2022-09-09T21:18:55.205Z,1.40
2022-09-09T21:21:42.697Z,1.33
2022-09-09T21:24:29.665Z,1.50
2022-09-09T21:27:16.728Z,1.30
2022-09-09T21:30:03.576Z,1.57
2022-09-09T21:32:50.515Z,1.30
2022-09-09T21:35:37.333Z,1.00
2022-09-09T21:38:24.424Z,1.10
2022-09-09T21:41:11.255Z,1.10
2022-09-09T21:43:58.540Z,1.33
2022-09-09T21:46:45.385Z,1.00
2022-09-09T21:49:32.737Z,1.10
2022-09-09T21:52:19.641Z,1.00
2022-09-09T21:55:06.634Z,1.33
2022-09-09T21:57:53.621Z,1.20
2022-09-09T22:00:40.612Z,1.30
2022-09-09T22:03:28.194Z,1.27
2022-09-09T22:06:15.371Z,1.10
2022-09-09T22:09:02.907Z,1.40
2022-09-09T22:11:49.829Z,1.50
2022-09-09T22:14:36.679Z,1.20
2022-09-09T22:17:24.438Z,1.23
2022-09-09T22:20:11.749Z,1.20
2022-09-09T22:22:59.833Z,1.20
2022-09-09T22:25:47.617Z,1.30
2022-09-09T22:28:34.826Z,1.30
2022-09-09T22:31:22.045Z,1.27
2022-09-09T22:34:09.376Z,1.40
2022-09-09T22:36:56.305Z,1.30
2022-09-09T22:39:43.519Z,1.40
2022-09-09T22:42:30.373Z,1.40
2022-09-09T22:45:17.373Z,1.27
2022-09-09T22:48:04.183Z,1.40
2022-09-09T22:50:58.383Z,1.27
2022-09-09T22:53:45.163Z,1.23
2022-09-09T22:56:39.796Z,1.30
2022-09-09T22:59:27.073Z,1.37
2022-09-09T23:02:14.608Z,1.50
2022-09-09T23:05:01.600Z,1.40
2022-09-09T23:07:48.629Z,1.20
2022-09-09T23:10:35.773Z,1.30
2022-09-09T23:13:22.764Z,1.40
2022-09-09T23:16:10.355Z,1.37
2022-09-09T23:18:57.544Z,1.53
2022-09-09T23:21:45.264Z,1.30
2022-09-09T23:24:34.988Z,1.53
2022-09-09T23:27:21.878Z,1.87
2022-09-09T23:30:08.851Z,1.47
2022-09-09T23:32:55.796Z,1.60
2022-09-09T23:35:43.011Z,1.43
2022-09-09T23:38:29.980Z,1.40
2022-09-09T23:41:17.112Z,1.53
2022-09-09T23:44:04.036Z,1.33
2022-09-09T23:46:52.717Z,1.40
2022-09-09T23:49:39.779Z,1.50
2022-09-09T23:52:27.127Z,1.37
2022-09-09T23:55:14.079Z,1.30
2022-09-09T23:58:01.132Z,1.53
